Time;durP1;ratioP1;P1;durP2;ratioP2;P2;SDS_P1;SDS_P2;PMS_P1;PMS_P2;Temp;Humidity;BMP_temperature;BMP_pressure;BME280_temperature;BME280_humidity;BME280_pressure;Samples;Min_cycle;Max_cycle;Signal;HPM_P1;HPM_P2
2023/09/23 00:00:51;;;;;;;;;;;14.40;99.90;;;;;;5033278;28;19912;-65
2023/09/23 00:03:17;;;;;;;;;;;14.20;99.90;;;;;;5033300;28;19905;-66
2023/09/23 00:05:43;;;;;;;;;;;14.10;99.90;;;;;;5029661;28;19906;-65
2023/09/23 00:08:09;;;;;;;;;;;14.10;99.90;;;;;;5013295;28;19906;-66
2023/09/23 00:10:35;;;;;;;;;;;14.10;99.90;;;;;;5013228;28;19913;-65
2023/09/23 00:13:01;;;;;;;;;;;14.00;99.90;;;;;;5013376;28;19951;-65
2023/09/23 00:15:26;;;;;;;;;;;14.00;99.90;;;;;;5013441;28;19910;-64
2023/09/23 00:17:54;;;;;;;;;;;14.20;99.90;;;;;;5025725;28;20259;-64
2023/09/23 00:20:21;;;;;;;;;;;14.20;99.90;;;;;;5035667;28;19905;-64
2023/09/23 00:22:47;;;;;;;;;;;14.20;99.90;;;;;;5036604;28;19904;-65
2023/09/23 00:25:16;;;;;;;;;;;14.30;99.90;;;;;;5036500;28;20394;-65
2023/09/23 00:27:41;;;;;;;;;;;14.30;99.90;;;;;;5036623;28;19941;-66
2023/09/23 00:30:07;;;;;;;;;;;14.30;99.90;;;;;;5036874;28;20413;-65
2023/09/23 00:32:34;;;;;;;;;;;14.30;99.90;;;;;;5036689;28;20355;-65
2023/09/23 00:35:00;;;;;;;;;;;14.30;99.90;;;;;;5036039;28;19909;-65
2023/09/23 00:37:25;;;;;;;;;;;14.20;99.90;;;;;;5036349;28;19905;-65
2023/09/23 00:39:51;;;;;;;;;;;14.20;99.90;;;;;;5036338;28;19905;-65
2023/09/23 00:42:18;;;;;;;;;;;14.20;99.90;;;;;;5036098;28;19909;-65
2023/09/23 00:44:44;;;;;;;;;;;14.40;99.90;;;;;;5036146;28;19919;-65
2023/09/23 00:47:13;;;;;;;;;;;14.30;99.90;;;;;;5035237;28;19905;-65
2023/09/23 00:49:40;;;;;;;;;;;14.20;99.90;;;;;;5035816;28;19905;-65
2023/09/23 00:52:06;;;;;;;;;;;14.30;99.90;;;;;;5036069;28;19905;-65
2023/09/23 00:54:35;;;;;;;;;;;14.10;99.90;;;;;;5035817;28;19992;-65
2023/09/23 00:57:06;;;;;;;;;;;14.10;99.90;;;;;;5035986;28;20406;-65
2023/09/23 00:59:35;;;;;;;;;;;14.20;99.90;;;;;;5036322;28;19905;-65
2023/09/23 01:02:04;;;;;;;;;;;14.30;99.90;;;;;;5035939;28;19959;-65
2023/09/23 01:04:29;;;;;;;;;;;14.40;99.90;;;;;;5035861;28;19912;-65
2023/09/23 01:06:56;;;;;;;;;;;14.30;99.90;;;;;;5036457;28;19905;-65
2023/09/23 01:09:22;;;;;;;;;;;14.40;99.90;;;;;;5035853;28;19905;-65
2023/09/23 01:11:50;;;;;;;;;;;14.40;99.90;;;;;;5036030;28;19931;-65
2023/09/23 01:14:21;;;;;;;;;;;14.40;99.90;;;;;;5035528;28;20301;-65
2023/09/23 01:16:51;;;;;;;;;;;14.30;99.90;;;;;;5036035;28;20444;-65
2023/09/23 01:19:16;;;;;;;;;;;14.30;99.90;;;;;;5039585;28;19905;-65
2023/09/23 01:21:42;;;;;;;;;;;14.30;99.90;;;;;;5037430;28;19974;-65
2023/09/23 01:24:07;;;;;;;;;;;14.20;99.90;;;;;;5035453;28;19913;-65
2023/09/23 01:26:34;;;;;;;;;;;14.10;99.90;;;;;;5035614;28;19906;-65
2023/09/23 01:29:00;;;;;;;;;;;14.10;99.90;;;;;;5035371;28;20363;-65
2023/09/23 01:31:29;;;;;;;;;;;14.00;99.90;;;;;;5034499;28;20324;-65
2023/09/23 01:33:56;;;;;;;;;;;14.00;99.90;;;;;;5035136;28;19991;-65
2023/09/23 01:36:21;;;;;;;;;;;13.90;99.90;;;;;;5035164;28;19941;-65
2023/09/23 01:38:48;;;;;;;;;;;13.90;99.90;;;;;;5035691;28;20352;-65
2023/09/23 01:41:15;;;;;;;;;;;13.90;99.90;;;;;;5036019;28;19945;-66
2023/09/23 01:43:41;;;;;;;;;;;13.90;99.90;;;;;;5035488;28;20000;-65
2023/09/23 01:46:07;;;;;;;;;;;13.70;99.90;;;;;;5035454;28;19988;-65
2023/09/23 01:48:33;;;;;;;;;;;13.80;99.90;;;;;;5034806;28;19913;-65
2023/09/23 01:50:58;;;;;;;;;;;13.80;99.90;;;;;;5035159;28;19913;-65
2023/09/23 01:53:25;;;;;;;;;;;13.70;99.90;;;;;;5034898;28;19940;-66
2023/09/23 01:55:51;;;;;;;;;;;13.80;99.90;;;;;;5033760;28;19909;-65
2023/09/23 01:58:16;;;;;;;;;;;13.70;99.90;;;;;;5035064;28;19912;-65
2023/09/23 02:00:42;;;;;;;;;;;13.60;99.90;;;;;;5035186;28;19995;-65
2023/09/23 02:03:08;;;;;;;;;;;13.60;99.90;;;;;;5035421;28;20367;-65
2023/09/23 02:05:33;;;;;;;;;;;13.50;99.90;;;;;;5034702;28;19905;-65
2023/09/23 02:07:59;;;;;;;;;;;13.40;99.90;;;;;;5034960;28;19909;-65
2023/09/23 02:10:26;;;;;;;;;;;13.30;99.90;;;;;;5035010;28;20046;-65
2023/09/23 02:12:52;;;;;;;;;;;13.30;99.90;;;;;;5034677;28;19912;-65
2023/09/23 02:15:17;;;;;;;;;;;13.20;99.90;;;;;;5034837;28;20046;-64
2023/09/23 02:17:43;;;;;;;;;;;13.30;99.90;;;;;;5034569;28;19947;-65
2023/09/23 02:20:18;;;;;;;;;;;13.40;99.90;;;;;;5034343;28;19948;-65
2023/09/23 02:22:44;;;;;;;;;;;13.40;99.90;;;;;;5035429;28;20283;-65
2023/09/23 02:25:13;;;;;;;;;;;13.30;99.90;;;;;;5035117;28;19905;-65
2023/09/23 02:27:40;;;;;;;;;;;13.20;99.90;;;;;;5035249;28;20326;-65
2023/09/23 02:30:06;;;;;;;;;;;13.20;99.90;;;;;;5035135;28;19927;-65
2023/09/23 02:32:32;;;;;;;;;;;13.20;99.90;;;;;;5034231;28;19905;-65
2023/09/23 02:34:57;;;;;;;;;;;13.10;99.90;;;;;;5033911;28;20338;-65
2023/09/23 02:37:26;;;;;;;;;;;13.10;99.90;;;;;;5034868;28;19970;-65
2023/09/23 02:39:52;;;;;;;;;;;13.00;99.90;;;;;;5035478;28;19905;-64
2023/09/23 02:42:17;;;;;;;;;;;12.90;99.90;;;;;;5034432;28;19916;-64
2023/09/23 02:44:43;;;;;;;;;;;12.80;99.90;;;;;;5035138;28;19905;-64
2023/09/23 02:47:08;;;;;;;;;;;12.70;99.90;;;;;;5035000;28;19935;-64
2023/09/23 02:49:34;;;;;;;;;;;12.80;99.90;;;;;;5033163;28;19905;-65
2023/09/23 02:52:00;;;;;;;;;;;12.80;99.90;;;;;;5034509;28;19936;-65
2023/09/23 02:54:26;;;;;;;;;;;12.80;99.90;;;;;;5034230;28;19909;-64
2023/09/23 02:56:52;;;;;;;;;;;12.70;99.90;;;;;;5034012;28;20330;-64
2023/09/23 02:59:26;;;;;;;;;;;12.70;99.90;;;;;;5034471;28;19955;-64
2023/09/23 03:01:53;;;;;;;;;;;12.70;99.90;;;;;;5033065;28;19963;-64
2023/09/23 03:04:23;;;;;;;;;;;12.90;99.90;;;;;;5033786;28;19983;-65
2023/09/23 03:06:49;;;;;;;;;;;12.80;99.90;;;;;;5034045;28;19909;-65
2023/09/23 03:09:25;;;;;;;;;;;12.80;99.90;;;;;;5034111;28;19919;-65
2023/09/23 03:11:57;;;;;;;;;;;12.90;99.90;;;;;;5034173;28;19905;-64
2023/09/23 03:14:28;;;;;;;;;;;12.80;99.90;;;;;;5033655;28;19905;-64
2023/09/23 03:16:54;;;;;;;;;;;12.90;99.90;;;;;;5033921;28;19955;-65
2023/09/23 03:19:25;;;;;;;;;;;12.90;99.90;;;;;;5033642;28;19912;-65
2023/09/23 03:21:56;;;;;;;;;;;12.80;99.90;;;;;;5033756;28;19975;-65
2023/09/23 03:24:22;;;;;;;;;;;12.90;99.90;;;;;;5033761;28;19967;-65
2023/09/23 03:26:47;;;;;;;;;;;13.00;99.90;;;;;;5034006;28;19905;-65
2023/09/23 03:29:13;;;;;;;;;;;12.90;99.90;;;;;;5034093;28;19912;-64
2023/09/23 03:31:39;;;;;;;;;;;13.00;99.90;;;;;;5033523;28;19912;-65
2023/09/23 03:34:05;;;;;;;;;;;13.00;99.90;;;;;;5033079;28;19995;-65
2023/09/23 03:36:31;;;;;;;;;;;13.00;99.90;;;;;;5033417;28;20279;-64
2023/09/23 03:39:00;;;;;;;;;;;13.00;99.90;;;;;;5033671;28;19905;-64
2023/09/23 03:41:27;;;;;;;;;;;13.00;99.90;;;;;;5033281;28;19905;-64
2023/09/23 03:43:53;;;;;;;;;;;12.80;99.90;;;;;;5033145;28;19924;-64
2023/09/23 03:46:18;;;;;;;;;;;12.80;99.90;;;;;;5033557;28;19909;-65
2023/09/23 03:48:44;;;;;;;;;;;12.70;99.90;;;;;;5032982;28;20435;-66
2023/09/23 03:51:09;;;;;;;;;;;12.70;99.90;;;;;;5033201;28;19991;-65
2023/09/23 03:53:38;;;;;;;;;;;12.60;99.90;;;;;;5033432;28;19905;-64
2023/09/23 03:56:03;;;;;;;;;;;12.60;99.90;;;;;;5037325;28;19909;-65
2023/09/23 03:58:30;;;;;;;;;;;12.60;99.90;;;;;;5037138;28;20394;-64
2023/09/23 04:00:55;;;;;;;;;;;12.50;99.90;;;;;;5037080;28;19912;-64
2023/09/23 04:03:21;;;;;;;;;;;12.50;99.90;;;;;;5037198;28;19905;-64
2023/09/23 04:05:54;;;;;;;;;;;12.50;99.90;;;;;;5036828;28;20356;-64
2023/09/23 04:08:19;;;;;;;;;;;12.80;99.90;;;;;;5037190;28;19912;-64
2023/09/23 04:10:45;;;;;;;;;;;12.80;99.90;;;;;;5036845;28;19909;-65
2023/09/23 04:13:12;;;;;;;;;;;12.80;99.90;;;;;;5036957;28;19905;-65
2023/09/23 04:15:39;;;;;;;;;;;13.10;99.90;;;;;;5037339;28;19923;-64
2023/09/23 04:18:05;;;;;;;;;;;13.20;99.90;;;;;;5038344;28;19939;-65
2023/09/23 04:20:32;;;;;;;;;;;13.20;99.90;;;;;;5038223;28;19905;-64
2023/09/23 04:22:57;;;;;;;;;;;13.20;99.90;;;;;;5041113;28;19904;-65
2023/09/23 04:25:23;;;;;;;;;;;13.10;99.90;;;;;;5038080;28;19916;-64
2023/09/23 04:27:52;;;;;;;;;;;12.90;99.90;;;;;;5036482;28;19947;-63
2023/09/23 04:30:17;;;;;;;;;;;12.80;99.90;;;;;;5036477;28;19905;-64
2023/09/23 04:32:43;;;;;;;;;;;12.80;99.90;;;;;;5036391;28;20333;-64
2023/09/23 04:35:09;;;;;;;;;;;12.60;99.90;;;;;;5036124;28;19917;-64
2023/09/23 04:37:37;;;;;;;;;;;12.60;99.90;;;;;;5035969;28;19932;-63
2023/09/23 04:40:09;;;;;;;;;;;12.60;99.90;;;;;;5036029;28;19928;-64
2023/09/23 04:42:35;;;;;;;;;;;12.40;99.90;;;;;;5035574;28;20071;-64
2023/09/23 04:45:01;;;;;;;;;;;12.40;99.90;;;;;;5035745;28;20018;-64
2023/09/23 04:47:26;;;;;;;;;;;12.50;99.90;;;;;;5035977;28;19959;-64
2023/09/23 04:49:53;;;;;;;;;;;12.40;99.90;;;;;;5036195;28;19905;-64
2023/09/23 04:52:19;;;;;;;;;;;12.40;99.90;;;;;;5036257;28;19908;-64
2023/09/23 04:54:44;;;;;;;;;;;12.40;99.90;;;;;;5036273;28;20261;-63
2023/09/23 04:57:10;;;;;;;;;;;12.30;99.90;;;;;;5035975;28;20023;-64
2023/09/23 04:59:35;;;;;;;;;;;12.30;99.90;;;;;;5036122;28;19936;-64
2023/09/23 05:02:01;;;;;;;;;;;12.30;99.90;;;;;;5035797;28;20275;-65
2023/09/23 05:04:26;;;;;;;;;;;12.30;99.90;;;;;;5035085;28;19905;-65
2023/09/23 05:06:52;;;;;;;;;;;12.30;99.90;;;;;;5035964;28;20003;-65
2023/09/23 05:09:17;;;;;;;;;;;12.30;99.90;;;;;;5035775;28;19956;-65
2023/09/23 05:11:42;;;;;;;;;;;12.30;99.90;;;;;;5035887;28;20012;-66
2023/09/23 05:14:08;;;;;;;;;;;12.20;99.90;;;;;;5034702;28;19956;-65
2023/09/23 05:16:33;;;;;;;;;;;12.30;99.90;;;;;;5035440;28;19909;-65
2023/09/23 05:18:59;;;;;;;;;;;12.20;99.90;;;;;;5035559;28;19916;-65
2023/09/23 05:21:24;;;;;;;;;;;12.20;99.90;;;;;;5035546;28;19905;-64
2023/09/23 05:23:51;;;;;;;;;;;12.20;99.90;;;;;;5035580;28;19994;-65
2023/09/23 05:26:16;;;;;;;;;;;12.20;99.90;;;;;;5035254;28;19905;-64
2023/09/23 05:28:42;;;;;;;;;;;12.20;99.90;;;;;;5034024;28;19905;-65
2023/09/23 05:31:08;;;;;;;;;;;12.20;99.90;;;;;;5035644;28;20356;-64
2023/09/23 05:33:33;;;;;;;;;;;12.30;99.90;;;;;;5034044;28;19999;-64
2023/09/23 05:35:59;;;;;;;;;;;12.30;99.90;;;;;;5034813;28;19909;-65
2023/09/23 05:38:24;;;;;;;;;;;12.30;99.90;;;;;;5035799;28;19905;-65
2023/09/23 05:40:52;;;;;;;;;;;12.30;99.90;;;;;;5035295;28;20003;-65
2023/09/23 05:43:17;;;;;;;;;;;12.40;99.90;;;;;;5035101;28;19913;-65
2023/09/23 05:45:43;;;;;;;;;;;12.60;99.90;;;;;;5034801;28;19909;-65
2023/09/23 05:48:09;;;;;;;;;;;12.60;99.90;;;;;;5035046;28;19905;-65
2023/09/23 05:50:36;;;;;;;;;;;12.60;99.90;;;;;;5035366;28;20291;-65
2023/09/23 05:53:01;;;;;;;;;;;12.60;99.90;;;;;;5035014;28;19905;-64
2023/09/23 05:55:27;;;;;;;;;;;12.50;99.90;;;;;;5033903;28;19976;-64
2023/09/23 05:57:53;;;;;;;;;;;12.50;99.90;;;;;;5034709;28;20430;-65
2023/09/23 06:00:19;;;;;;;;;;;12.40;99.90;;;;;;5034697;28;19939;-66
2023/09/23 06:02:45;;;;;;;;;;;12.50;99.90;;;;;;5034966;28;19937;-65
2023/09/23 06:05:11;;;;;;;;;;;12.60;99.90;;;;;;5034644;28;19905;-64
2023/09/23 06:07:37;;;;;;;;;;;12.80;99.90;;;;;;5034548;28;19905;-65
2023/09/23 06:10:04;;;;;;;;;;;12.90;99.90;;;;;;5034736;28;19911;-64
2023/09/23 06:12:30;;;;;;;;;;;12.90;99.90;;;;;;5034604;28;19912;-64
2023/09/23 06:14:56;;;;;;;;;;;13.00;99.90;;;;;;5034413;28;19912;-64
2023/09/23 06:17:22;;;;;;;;;;;12.90;99.90;;;;;;5034093;28;19988;-65
2023/09/23 06:19:48;;;;;;;;;;;12.90;99.90;;;;;;5034218;28;20398;-64
2023/09/23 06:22:13;;;;;;;;;;;12.80;99.90;;;;;;5034315;28;19912;-65
2023/09/23 06:24:39;;;;;;;;;;;13.00;99.90;;;;;;5034496;28;19912;-65
2023/09/23 06:27:04;;;;;;;;;;;13.00;99.90;;;;;;5034601;28;20036;-64
2023/09/23 06:29:30;;;;;;;;;;;12.90;99.90;;;;;;5034695;28;19909;-64
2023/09/23 06:31:55;;;;;;;;;;;13.10;99.90;;;;;;5034902;28;19912;-64
2023/09/23 06:34:21;;;;;;;;;;;13.10;99.90;;;;;;5034037;28;20364;-64
2023/09/23 06:36:46;;;;;;;;;;;13.20;99.90;;;;;;5034835;28;19905;-65
2023/09/23 06:39:12;;;;;;;;;;;13.30;99.90;;;;;;5034276;28;19905;-65
2023/09/23 06:41:37;;;;;;;;;;;13.30;99.90;;;;;;5034202;28;19915;-64
2023/09/23 06:44:03;;;;;;;;;;;13.40;99.90;;;;;;5034154;28;19917;-65
2023/09/23 06:46:29;;;;;;;;;;;13.30;99.90;;;;;;5034089;28;19930;-64
2023/09/23 06:48:54;;;;;;;;;;;13.40;99.90;;;;;;5033669;28;20233;-65
2023/09/23 06:51:20;;;;;;;;;;;13.50;99.90;;;;;;5034160;28;19905;-64
2023/09/23 06:53:47;;;;;;;;;;;13.70;99.90;;;;;;5034084;28;19980;-65
2023/09/23 06:56:12;;;;;;;;;;;13.70;99.90;;;;;;5034344;28;20408;-64
2023/09/23 06:58:37;;;;;;;;;;;13.70;99.90;;;;;;5035114;28;20002;-64
2023/09/23 07:01:03;;;;;;;;;;;13.80;99.90;;;;;;5036477;28;19905;-64
2023/09/23 07:03:28;;;;;;;;;;;13.90;99.90;;;;;;5035041;28;19954;-62
2023/09/23 07:05:54;;;;;;;;;;;13.80;99.90;;;;;;5034060;28;20008;-65
2023/09/23 07:08:19;;;;;;;;;;;13.80;99.90;;;;;;5034043;28;19913;-64
2023/09/23 07:10:45;;;;;;;;;;;13.90;99.90;;;;;;5033807;28;20349;-64
2023/09/23 07:13:10;;;;;;;;;;;13.90;99.90;;;;;;5034048;28;19912;-65
2023/09/23 07:15:37;;;;;;;;;;;13.90;99.90;;;;;;5034170;28;19944;-65
2023/09/23 07:18:03;;;;;;;;;;;13.90;99.90;;;;;;5033628;28;20008;-66
2023/09/23 07:20:28;;;;;;;;;;;14.00;99.90;;;;;;5031787;28;19909;-65
2023/09/23 07:22:54;;;;;;;;;;;14.00;99.90;;;;;;5034215;28;19975;-67
2023/09/23 07:25:19;;;;;;;;;;;14.00;99.90;;;;;;5038224;28;19912;-66
2023/09/23 07:27:45;;;;;;;;;;;14.00;99.90;;;;;;5037054;28;19931;-70
2023/09/23 07:30:11;;;;;;;;;;;14.00;99.90;;;;;;5033950;28;19905;-73
2023/09/23 07:32:36;;;;;;;;;;;14.10;99.90;;;;;;5017106;28;20260;-67
2023/09/23 07:35:03;;;;;;;;;;;14.20;99.90;;;;;;5017632;28;19956;-70
2023/09/23 07:37:29;;;;;;;;;;;14.10;99.90;;;;;;5017174;28;20035;-68
2023/09/23 07:39:55;;;;;;;;;;;14.20;99.90;;;;;;5016720;28;19960;-68
2023/09/23 07:42:20;;;;;;;;;;;14.30;99.90;;;;;;5017633;28;20016;-70
2023/09/23 07:44:46;;;;;;;;;;;14.40;99.90;;;;;;5017766;28;19913;-69
2023/09/23 07:47:11;;;;;;;;;;;14.50;99.90;;;;;;5017922;28;19905;-69
2023/09/23 07:49:38;;;;;;;;;;;14.50;99.90;;;;;;5017274;28;19917;-66
2023/09/23 07:52:03;;;;;;;;;;;14.50;99.90;;;;;;5017546;28;19905;-64
2023/09/23 07:54:28;;;;;;;;;;;14.60;99.90;;;;;;5017238;28;19912;-65
2023/09/23 07:56:54;;;;;;;;;;;14.60;99.90;;;;;;5017850;28;20357;-65
2023/09/23 07:59:19;;;;;;;;;;;14.60;99.90;;;;;;5017495;28;20007;-65
2023/09/23 08:01:45;;;;;;;;;;;14.70;99.90;;;;;;5034257;28;19909;-66
2023/09/23 08:04:13;;;;;;;;;;;14.60;99.90;;;;;;5037577;28;19905;-66
2023/09/23 08:06:38;;;;;;;;;;;14.70;99.90;;;;;;5037490;28;19920;-66
2023/09/23 08:09:05;;;;;;;;;;;14.70;99.90;;;;;;5037165;28;19905;-65
2023/09/23 08:11:31;;;;;;;;;;;14.80;99.90;;;;;;5037470;28;20386;-65
2023/09/23 08:13:57;;;;;;;;;;;14.80;99.90;;;;;;5035750;28;20002;-66
2023/09/23 08:16:22;;;;;;;;;;;15.00;99.90;;;;;;5037360;28;19967;-65
2023/09/23 08:18:48;;;;;;;;;;;15.10;99.90;;;;;;5035609;28;19915;-66
2023/09/23 08:21:15;;;;;;;;;;;15.10;99.90;;;;;;5035213;28;20000;-65
2023/09/23 08:23:40;;;;;;;;;;;15.20;99.90;;;;;;5036512;28;19912;-64
2023/09/23 08:26:06;;;;;;;;;;;15.10;99.90;;;;;;5054186;22;19893;-67
2023/09/23 08:28:31;;;;;;;;;;;15.20;99.90;;;;;;5076476;28;20388;-66
2023/09/23 08:30:57;;;;;;;;;;;15.20;99.90;;;;;;5076363;28;19905;-67
2023/09/23 08:33:22;;;;;;;;;;;15.30;99.90;;;;;;5075679;28;19908;-65
2023/09/23 08:35:48;;;;;;;;;;;15.40;99.90;;;;;;5058343;28;20011;-67
2023/09/23 08:38:14;;;;;;;;;;;15.50;99.90;;;;;;5058228;28;19969;-66
2023/09/23 08:40:40;;;;;;;;;;;15.70;99.90;;;;;;5056701;28;19905;-66
2023/09/23 08:43:05;;;;;;;;;;;15.80;99.90;;;;;;5076105;28;20335;-66
2023/09/23 08:45:31;;;;;;;;;;;16.00;99.90;;;;;;5076338;28;19908;-66
2023/09/23 08:47:57;;;;;;;;;;;16.10;99.90;;;;;;5075853;28;19958;-67
2023/09/23 08:50:27;;;;;;;;;;;16.20;99.90;;;;;;5076043;28;19904;-66
2023/09/23 08:52:53;;;;;;;;;;;16.40;99.90;;;;;;5076087;28;19908;-65
2023/09/23 08:55:18;;;;;;;;;;;16.70;99.90;;;;;;5075677;28;19908;-65
2023/09/23 08:57:44;;;;;;;;;;;17.50;99.90;;;;;;5075205;28;19912;-65
2023/09/23 09:00:10;;;;;;;;;;;19.90;99.90;;;;;;5075667;28;19916;-68
2023/09/23 09:02:36;;;;;;;;;;;22.30;98.80;;;;;;5057757;28;19908;-65
2023/09/23 09:05:01;;;;;;;;;;;24.10;95.60;;;;;;5075598;28;19905;-65
2023/09/23 09:07:33;;;;;;;;;;;25.60;93.30;;;;;;5076416;28;19916;-64
2023/09/23 09:09:59;;;;;;;;;;;26.30;91.10;;;;;;5080043;28;19908;-65
2023/09/23 09:12:25;;;;;;;;;;;26.80;90.20;;;;;;5087403;28;19965;-65
2023/09/23 09:14:53;;;;;;;;;;;26.50;89.80;;;;;;5083518;28;19914;-65
2023/09/23 09:17:19;;;;;;;;;;;27.40;88.80;;;;;;5075115;28;20308;-65
2023/09/23 09:19:44;;;;;;;;;;;28.00;85.90;;;;;;5092030;28;19951;-65
2023/09/23 09:22:10;;;;;;;;;;;27.30;85.50;;;;;;5081422;28;19931;-65
2023/09/23 09:24:35;;;;;;;;;;;26.80;85.70;;;;;;5086238;28;19962;-65
2023/09/23 09:27:01;;;;;;;;;;;26.80;85.30;;;;;;5074691;28;19920;-65
2023/09/23 09:29:28;;;;;;;;;;;26.50;85.40;;;;;;5074883;28;19904;-66
2023/09/23 09:31:59;;;;;;;;;;;26.80;85.40;;;;;;5075129;28;20004;-65
2023/09/23 09:34:24;;;;;;;;;;;26.90;84.40;;;;;;5075193;28;19905;-66
2023/09/23 09:36:54;;;;;;;;;;;25.80;86.20;;;;;;5075325;28;19912;-65
2023/09/23 09:39:20;;;;;;;;;;;24.70;87.70;;;;;;5075397;28;20372;-63
2023/09/23 09:41:50;;;;;;;;;;;23.80;89.90;;;;;;5074727;28;20291;-64
2023/09/23 09:44:16;;;;;;;;;;;22.70;91.30;;;;;;5074818;28;20346;-64
2023/09/23 09:46:44;;;;;;;;;;;23.00;91.30;;;;;;5075286;28;19904;-63
2023/09/23 09:49:10;;;;;;;;;;;24.30;90.00;;;;;;5075018;28;20282;-62
2023/09/23 09:51:36;;;;;;;;;;;26.10;86.20;;;;;;5074206;28;19912;-65
2023/09/23 09:54:04;;;;;;;;;;;27.50;84.60;;;;;;5056906;28;20286;-67
2023/09/23 09:56:32;;;;;;;;;;;28.40;82.00;;;;;;5074636;28;19909;-67
2023/09/23 09:58:59;;;;;;;;;;;29.10;79.50;;;;;;5056677;28;19950;-67
2023/09/23 10:01:25;;;;;;;;;;;28.60;78.90;;;;;;5074402;28;19904;-68
2023/09/23 10:03:53;;;;;;;;;;;28.60;79.80;;;;;;5056399;28;19911;-68
2023/09/23 10:06:19;;;;;;;;;;;29.50;78.70;;;;;;5074663;28;19953;-68
2023/09/23 10:08:48;;;;;;;;;;;30.40;77.50;;;;;;5056472;28;19904;-67
2023/09/23 10:11:14;;;;;;;;;;;30.90;74.70;;;;;;5074147;28;20286;-68
2023/09/23 10:13:39;;;;;;;;;;;31.30;74.80;;;;;;5056294;28;19904;-69
2023/09/23 10:16:05;;;;;;;;;;;32.00;73.30;;;;;;5074218;28;19908;-69
2023/09/23 10:18:35;;;;;;;;;;;32.20;71.20;;;;;;5074582;28;19957;-67
2023/09/23 10:21:02;;;;;;;;;;;31.50;70.30;;;;;;5074248;28;20013;-68
2023/09/23 10:23:34;;;;;;;;;;;31.20;71.60;;;;;;5074789;28;20295;-68
2023/09/23 10:26:10;;;;;;;;;;;29.50;73.80;;;;;;5074296;28;20042;-70
2023/09/23 10:28:36;;;;;;;;;;;29.10;74.10;;;;;;5074045;28;19912;-67
2023/09/23 10:31:06;;;;;;;;;;;28.40;74.20;;;;;;5074784;28;20003;-68
2023/09/23 10:33:34;;;;;;;;;;;28.00;75.80;;;;;;5058130;28;19908;-67
2023/09/23 10:36:00;;;;;;;;;;;27.20;77.30;;;;;;5093902;28;19954;-67
2023/09/23 10:38:27;;;;;;;;;;;28.10;75.80;;;;;;5094126;28;19904;-66
2023/09/23 10:40:54;;;;;;;;;;;28.20;75.00;;;;;;5075766;28;20372;-67
2023/09/23 10:43:21;;;;;;;;;;;28.80;74.40;;;;;;5093448;28;20386;-67
2023/09/23 10:45:48;;;;;;;;;;;28.20;76.00;;;;;;5094010;28;19904;-67
2023/09/23 10:48:16;;;;;;;;;;;28.50;75.30;;;;;;5094413;28;19904;-66
2023/09/23 10:50:42;;;;;;;;;;;27.10;76.80;;;;;;5075988;28;20007;-66
2023/09/23 10:53:08;;;;;;;;;;;27.90;76.60;;;;;;5075951;28;20396;-67
2023/09/23 10:55:34;;;;;;;;;;;28.10;74.70;;;;;;5094170;28;19908;-66
2023/09/23 10:58:04;;;;;;;;;;;26.70;77.00;;;;;;5094033;28;20263;-67
2023/09/23 11:00:33;;;;;;;;;;;25.60;79.00;;;;;;5076238;28;19910;-67
2023/09/23 11:03:05;;;;;;;;;;;24.40;82.10;;;;;;5094227;28;19904;-67
2023/09/23 11:05:30;;;;;;;;;;;23.50;84.00;;;;;;5065228;28;19904;-67
2023/09/23 11:07:56;;;;;;;;;;;22.80;85.70;;;;;;5094425;28;19914;-67
2023/09/23 11:10:23;;;;;;;;;;;22.10;87.10;;;;;;5093955;28;19904;-67
2023/09/23 11:12:49;;;;;;;;;;;21.70;88.80;;;;;;5093962;28;20009;-66
2023/09/23 11:15:14;;;;;;;;;;;21.40;90.10;;;;;;5093673;28;20003;-67
2023/09/23 11:17:40;;;;;;;;;;;21.30;90.70;;;;;;5075634;28;19954;-67
2023/09/23 11:20:09;;;;;;;;;;;20.90;90.40;;;;;;5075457;28;19971;-69
2023/09/23 11:22:37;;;;;;;;;;;20.70;90.80;;;;;;5093743;28;19907;-68
2023/09/23 11:25:09;;;;;;;;;;;20.60;91.30;;;;;;5076054;28;19959;-68
2023/09/23 11:27:34;;;;;;;;;;;20.50;91.40;;;;;;5075381;28;19912;-67
2023/09/23 11:30:00;;;;;;;;;;;20.50;91.40;;;;;;5093972;28;19914;-68
2023/09/23 11:32:26;;;;;;;;;;;20.40;91.50;;;;;;5094112;28;19911;-67
2023/09/23 11:34:52;;;;;;;;;;;20.40;91.70;;;;;;5080652;28;19908;-67
2023/09/23 11:37:20;;;;;;;;;;;20.40;91.80;;;;;;5055964;28;19904;-67
2023/09/23 11:39:49;;;;;;;;;;;20.40;91.00;;;;;;5074561;28;19908;-67
2023/09/23 11:42:14;;;;;;;;;;;20.30;91.20;;;;;;5074025;28;19911;-67
2023/09/23 11:44:40;;;;;;;;;;;20.40;91.40;;;;;;5074250;28;19904;-67
2023/09/23 11:47:06;;;;;;;;;;;20.30;91.40;;;;;;5074411;28;19904;-68
2023/09/23 11:49:31;;;;;;;;;;;20.30;91.30;;;;;;5074081;28;19916;-68
2023/09/23 11:51:57;;;;;;;;;;;20.50;91.60;;;;;;5073384;28;19904;-67
2023/09/23 11:54:23;;;;;;;;;;;20.50;91.50;;;;;;5073509;28;19999;-67
2023/09/23 11:56:48;;;;;;;;;;;20.60;91.10;;;;;;5072677;28;20278;-66
2023/09/23 11:59:14;;;;;;;;;;;20.50;91.40;;;;;;5054957;28;20274;-66
2023/09/23 12:01:40;;;;;;;;;;;20.70;91.10;;;;;;5055423;28;20259;-69
2023/09/23 12:04:06;;;;;;;;;;;20.60;91.30;;;;;;5072432;28;19954;-68
2023/09/23 12:06:35;;;;;;;;;;;20.40;91.20;;;;;;5073219;28;19909;-68
2023/09/23 12:09:03;;;;;;;;;;;20.20;91.40;;;;;;5073440;28;19904;-68
2023/09/23 12:11:30;;;;;;;;;;;20.00;91.80;;;;;;5055231;28;19905;-68
2023/09/23 12:13:55;;;;;;;;;;;19.80;92.40;;;;;;5073016;28;19904;-68
2023/09/23 12:16:21;;;;;;;;;;;19.80;92.50;;;;;;5075941;28;19908;-68
2023/09/23 12:18:48;;;;;;;;;;;19.70;92.60;;;;;;5076621;28;19943;-68
2023/09/23 12:21:13;;;;;;;;;;;19.60;92.70;;;;;;5058516;28;20049;-67
2023/09/23 12:23:40;;;;;;;;;;;19.70;92.60;;;;;;5076500;28;19940;-68
2023/09/23 12:26:06;;;;;;;;;;;20.00;92.50;;;;;;5076404;28;19905;-67
2023/09/23 12:28:31;;;;;;;;;;;20.10;92.20;;;;;;5076091;28;19915;-67
2023/09/23 12:30:57;;;;;;;;;;;20.20;91.50;;;;;;5076260;28;19904;-67
2023/09/23 12:33:23;;;;;;;;;;;20.40;91.70;;;;;;5076217;28;19904;-67
2023/09/23 12:35:48;;;;;;;;;;;20.50;91.20;;;;;;5056898;28;19959;-68
2023/09/23 12:38:13;;;;;;;;;;;20.60;90.80;;;;;;5054913;28;19905;-68
2023/09/23 12:40:39;;;;;;;;;;;20.60;91.20;;;;;;5056116;28;19963;-67
2023/09/23 12:43:05;;;;;;;;;;;20.70;91.40;;;;;;5056873;28;19904;-67
2023/09/23 12:45:30;;;;;;;;;;;20.90;91.30;;;;;;5056036;28;19905;-67
2023/09/23 12:47:56;;;;;;;;;;;20.90;91.20;;;;;;5054823;28;19904;-66
2023/09/23 12:50:21;;;;;;;;;;;20.80;90.90;;;;;;5056336;28;19911;-67
2023/09/23 12:52:46;;;;;;;;;;;20.70;90.90;;;;;;5054616;28;19905;-67
2023/09/23 12:55:12;;;;;;;;;;;20.70;91.20;;;;;;5055998;28;20383;-67
2023/09/23 12:57:38;;;;;;;;;;;20.60;91.20;;;;;;5056300;28;20236;-66
2023/09/23 13:00:04;;;;;;;;;;;20.50;91.80;;;;;;5054590;28;19909;-67
2023/09/23 13:02:29;;;;;;;;;;;20.50;91.50;;;;;;5055898;28;19912;-67
2023/09/23 13:04:55;;;;;;;;;;;20.40;91.50;;;;;;5067518;28;19905;-67
2023/09/23 13:07:20;;;;;;;;;;;20.40;91.70;;;;;;5075492;28;19912;-67
2023/09/23 13:09:46;;;;;;;;;;;20.40;91.50;;;;;;5075494;28;19909;-66
2023/09/23 13:12:12;;;;;;;;;;;20.30;91.70;;;;;;5075063;28;20339;-66
2023/09/23 13:14:37;;;;;;;;;;;20.10;91.90;;;;;;5057460;28;19905;-66
2023/09/23 13:17:03;;;;;;;;;;;20.10;92.00;;;;;;5075622;28;19904;-67
2023/09/23 13:19:29;;;;;;;;;;;20.10;91.90;;;;;;5076035;28;19904;-67
2023/09/23 13:21:54;;;;;;;;;;;20.10;91.90;;;;;;5057614;28;20002;-67
2023/09/23 13:24:21;;;;;;;;;;;20.10;92.10;;;;;;5057770;28;19904;-67
2023/09/23 13:26:46;;;;;;;;;;;20.10;92.50;;;;;;5075240;28;20343;-68
2023/09/23 13:29:12;;;;;;;;;;;20.20;92.40;;;;;;5076221;28;19908;-67
2023/09/23 13:31:38;;;;;;;;;;;20.30;92.20;;;;;;5075616;28;19957;-67
2023/09/23 13:34:03;;;;;;;;;;;20.30;91.40;;;;;;5075574;28;19991;-67
2023/09/23 13:36:30;;;;;;;;;;;20.20;91.50;;;;;;5075417;28;19908;-67
2023/09/23 13:38:56;;;;;;;;;;;20.20;91.40;;;;;;5057646;28;19905;-67
2023/09/23 13:41:21;;;;;;;;;;;20.10;92.00;;;;;;5057158;28;19927;-67
2023/09/23 13:43:47;;;;;;;;;;;20.00;91.50;;;;;;5074774;28;19958;-67
2023/09/23 13:46:13;;;;;;;;;;;20.00;91.60;;;;;;5075003;28;19904;-67
2023/09/23 13:48:38;;;;;;;;;;;20.00;91.80;;;;;;5075133;28;19958;-66
2023/09/23 13:51:04;;;;;;;;;;;20.10;91.80;;;;;;5075214;28;19912;-67
2023/09/23 13:53:29;;;;;;;;;;;20.10;91.90;;;;;;5074827;28;20409;-67
2023/09/23 13:55:55;;;;;;;;;;;20.10;91.90;;;;;;5074728;28;20317;-67
2023/09/23 13:58:20;;;;;;;;;;;20.10;92.10;;;;;;5074665;28;19951;-67
2023/09/23 14:00:46;;;;;;;;;;;20.10;92.10;;;;;;5074688;28;19908;-67
2023/09/23 14:03:12;;;;;;;;;;;20.10;92.20;;;;;;5074730;28;19911;-68
2023/09/23 14:05:37;;;;;;;;;;;19.90;92.40;;;;;;5074598;28;19904;-68
2023/09/23 14:08:03;;;;;;;;;;;19.90;92.70;;;;;;5075294;28;19952;-66
2023/09/23 14:10:29;;;;;;;;;;;19.80;93.00;;;;;;5074632;28;19904;-67